Aeroporto :
LOGIN :

Iscrizione | Disclaimer

   EN    FR    IT 

 










Sommario :    VFR   VFR Marginale   IFR   IFR Intensivo   IFR Molto Intensivo
Visibilità : 
Base nubi : 
>= 8 km
>= 3000ft
5 / 8 km
1000 / 3000 ft
1500m / 5 km
500 / 1000 ft
800 / 1500m
200 / 500 ft
< 800m
< 200 ft
Simboli :   Temporali  Nebbia  Neve Forte  Precipitazioni Forti  Vento > 20 kt
SIGMETs :   Varie  Temporali  Ghiacco  Turbolenza  Onda orograficha  Ceneri Vulcaniche






- Altitudine del aeroporto : 526 ft
- Codice IATA : LTN


EGGW - London Luton

ULTIMO METAR :
  • 280150Z AUTO 04004KT 2100 BR OVC005 04/04 Q1016

METARs OBSOLETI :
  • 280120Z AUTO 04004KT 2600 BR BKN007 OVC012 04/04 Q1016
  • 280050Z AUTO 05005KT 2400 BR OVC008 04/04 Q1016
  • 280020Z AUTO 05004KT 2700 BR OVC009 04/04 Q1016
  • 272350Z AUTO 08004KT 4000 BR OVC012 04/04 Q1016
  • 272320Z 08005KT 3000 BR BKN014 03/03 Q1016

TAF TAF EGGW
Valido dal 28 a 00 ore il 29 a 00 ore UTC


272305Z 2800/2824 05005KT 6000 SCT030
BECMG 2800/2803 3000 BR BKN008
TEMPO 2800/2811 RADZ
PROB30
TEMPO 2800/2810 0300 FG OVC001
BECMG 2812/2815 7000 NSW BKN010
BECMG 2815/2818 BKN008
PROB40
TEMPO 2815/2818 4000 BR
PROB30 2818/2824 0300 FG BKN000
ATIS : +44 1582 395 204



MetMap, La meteo Aeronautica in un colpo d'occhio ! - Copyright ORBIFLY Dicembre 2007 - Disclaimer

ORBIFLY MET'MAP TEAM :

Programmazione e sviluppo : Alexandra Zaïnal
Concezione : Baudouin d'Aumeries
Aiuto per la programmazione : Marc-Olivier Méhu
Supporto tecnico e logistico : Manuel Goepfert
Aiuto per la traduzione : Arnaldo La Scala

Contatto : metmap@orbifly.com




FONTI E CREDITI :

   NOAA